sensor_id;sensor_type;location;lat;lon;timestamp;pressure;altitude;pressure_sealevel;temperature;humidity
39773;BME280;25451;51.960;6.250;2022-11-09T00:01:36;100384.13;;;14.62;69.92
39773;BME280;25451;51.960;6.250;2022-11-09T00:04:03;100382.19;;;14.63;70.19
39773;BME280;25451;51.960;6.250;2022-11-09T00:06:29;100379.16;;;14.59;70.30
39773;BME280;25451;51.960;6.250;2022-11-09T00:08:54;100379.16;;;14.59;70.24
39773;BME280;25451;51.960;6.250;2022-11-09T00:11:20;100386.09;;;14.57;69.93
39773;BME280;25451;51.960;6.250;2022-11-09T00:13:46;100374.13;;;14.56;70.16
39773;BME280;25451;51.960;6.250;2022-11-09T00:16:14;100371.66;;;14.60;70.36
39773;BME280;25451;51.960;6.250;2022-11-09T00:18:40;100375.53;;;14.59;70.33
39773;BME280;25451;51.960;6.250;2022-11-09T00:21:20;100366.34;;;14.58;70.19
39773;BME280;25451;51.960;6.250;2022-11-09T00:23:46;100372.47;;;14.60;70.25
39773;BME280;25451;51.960;6.250;2022-11-09T00:26:13;100363.31;;;14.60;70.29
39773;BME280;25451;51.960;6.250;2022-11-09T00:28:39;100371.91;;;14.58;70.35
39773;BME280;25451;51.960;6.250;2022-11-09T00:31:07;100369.97;;;14.59;70.40
39773;BME280;25451;51.960;6.250;2022-11-09T00:33:34;100379.41;;;14.58;70.31
39773;BME280;25451;51.960;6.250;2022-11-09T00:36:05;100370.25;;;14.52;70.47
39773;BME280;25451;51.960;6.250;2022-11-09T00:38:34;100386.63;;;14.59;70.45
39773;BME280;25451;51.960;6.250;2022-11-09T00:41:04;100376.91;;;14.56;70.37
39773;BME280;25451;51.960;6.250;2022-11-09T00:43:30;100375.28;;;14.55;70.39
39773;BME280;25451;51.960;6.250;2022-11-09T00:45:55;100369.97;;;14.54;70.30
39773;BME280;25451;51.960;6.250;2022-11-09T00:48:20;100387.47;;;14.54;70.39
39773;BME280;25451;51.960;6.250;2022-11-09T00:50:53;100390.50;;;14.58;70.57
39773;BME280;25451;51.960;6.250;2022-11-09T00:53:19;100389.72;;;14.57;70.33
39773;BME280;25451;51.960;6.250;2022-11-09T00:55:55;100392.19;;;14.59;70.34
39773;BME280;25451;51.960;6.250;2022-11-09T00:58:21;100385.81;;;14.58;70.54
39773;BME280;25451;51.960;6.250;2022-11-09T01:00:47;100387.19;;;14.56;70.27
39773;BME280;25451;51.960;6.250;2022-11-09T01:03:12;100395.81;;;14.59;70.51
39773;BME280;25451;51.960;6.250;2022-11-09T01:05:37;100396.66;;;14.60;70.66
39773;BME280;25451;51.960;6.250;2022-11-09T01:08:06;100394.41;;;14.62;70.49
39773;BME280;25451;51.960;6.250;2022-11-09T01:10:31;100387.47;;;14.59;70.57
39773;BME280;25451;51.960;6.250;2022-11-09T01:12:57;100389.41;;;14.64;70.67
39773;BME280;25451;51.960;6.250;2022-11-09T01:15:22;100375.25;;;14.60;70.65
39773;BME280;25451;51.960;6.250;2022-11-09T01:17:48;100392.44;;;14.62;70.35
39773;BME280;25451;51.960;6.250;2022-11-09T01:20:14;100399.09;;;14.66;70.50
39773;BME280;25451;51.960;6.250;2022-11-09T01:22:40;100390.78;;;14.66;70.59
39773;BME280;25451;51.960;6.250;2022-11-09T01:25:06;100389.38;;;14.69;70.51
39773;BME280;25451;51.960;6.250;2022-11-09T01:27:31;100394.94;;;14.69;70.53
39773;BME280;25451;51.960;6.250;2022-11-09T01:29:57;100380.22;;;14.68;70.74
39773;BME280;25451;51.960;6.250;2022-11-09T01:32:22;100367.75;;;14.61;70.55
39773;BME280;25451;51.960;6.250;2022-11-09T01:34:47;100374.41;;;14.65;70.73
39773;BME280;25451;51.960;6.250;2022-11-09T01:37:13;100391.31;;;14.68;70.48
39773;BME280;25451;51.960;6.250;2022-11-09T01:39:38;100389.09;;;14.70;70.80
39773;BME280;25451;51.960;6.250;2022-11-09T01:42:03;100374.69;;;14.63;70.60
39773;BME280;25451;51.960;6.250;2022-11-09T01:44:29;100383.53;;;14.70;70.73
39773;BME280;25451;51.960;6.250;2022-11-09T01:51:58;100364.38;;;14.69;70.66
39773;BME280;25451;51.960;6.250;2022-11-09T01:54:35;100371.63;;;14.70;70.57
39773;BME280;25451;51.960;6.250;2022-11-09T01:57:05;100363.00;;;14.66;70.58
39773;BME280;25451;51.960;6.250;2022-11-09T01:59:36;100364.13;;;14.65;70.71
39773;BME280;25451;51.960;6.250;2022-11-09T02:02:03;100368.56;;;14.66;70.84
39773;BME280;25451;51.960;6.250;2022-11-09T02:04:38;100369.38;;;14.67;70.97
39773;BME280;25451;51.960;6.250;2022-11-09T02:07:06;100370.78;;;14.64;70.89
39773;BME280;25451;51.960;6.250;2022-11-09T02:09:42;100364.69;;;14.62;70.81
39773;BME280;25451;51.960;6.250;2022-11-09T02:12:09;100372.47;;;14.60;70.94
39773;BME280;25451;51.960;6.250;2022-11-09T02:14:36;100368.03;;;14.59;70.73
39773;BME280;25451;51.960;6.250;2022-11-09T02:17:03;100383.56;;;14.60;70.90
39773;BME280;25451;51.960;6.250;2022-11-09T02:19:29;100381.63;;;14.56;70.97
39773;BME280;25451;51.960;6.250;2022-11-09T02:21:54;100384.16;;;14.57;70.89
39773;BME280;25451;51.960;6.250;2022-11-09T02:24:19;100381.38;;;14.52;71.00
39773;BME280;25451;51.960;6.250;2022-11-09T02:26:50;100386.63;;;14.54;70.93
39773;BME280;25451;51.960;6.250;2022-11-09T02:29:22;100393.03;;;14.54;71.13
39773;BME280;25451;51.960;6.250;2022-11-09T02:31:52;100377.75;;;14.52;71.09
39773;BME280;25451;51.960;6.250;2022-11-09T02:34:20;100375.56;;;14.49;71.19
39773;BME280;25451;51.960;6.250;2022-11-09T02:36:46;100388.88;;;14.52;71.14
39773;BME280;25451;51.960;6.250;2022-11-09T02:39:13;100400.81;;;14.52;71.25
39773;BME280;25451;51.960;6.250;2022-11-09T02:42:00;100407.50;;;14.46;71.08
39773;BME280;25451;51.960;6.250;2022-11-09T02:44:27;100403.03;;;14.50;71.22
39773;BME280;25451;51.960;6.250;2022-11-09T02:46:53;100390.28;;;14.49;71.22
39773;BME280;25451;51.960;6.250;2022-11-09T02:49:19;100396.66;;;14.50;71.22
39773;BME280;25451;51.960;6.250;2022-11-09T02:51:44;100384.72;;;14.44;71.14
39773;BME280;25451;51.960;6.250;2022-11-09T02:54:10;100379.16;;;14.44;71.02
39773;BME280;25451;51.960;6.250;2022-11-09T02:56:35;100375.88;;;14.37;71.26
39773;BME280;25451;51.960;6.250;2022-11-09T02:59:00;100391.66;;;14.42;71.32
39773;BME280;25451;51.960;6.250;2022-11-09T03:01:27;100384.19;;;14.37;71.09
39773;BME280;25451;51.960;6.250;2022-11-09T03:03:52;100387.53;;;14.39;71.16
39773;BME280;25451;51.960;6.250;2022-11-09T03:06:18;100391.41;;;14.38;71.28
39773;BME280;25451;51.960;6.250;2022-11-09T03:08:43;100383.09;;;14.33;71.20
39773;BME280;25451;51.960;6.250;2022-11-09T03:11:09;100381.97;;;14.34;71.45
39773;BME280;25451;51.960;6.250;2022-11-09T03:13:34;100392.25;;;14.39;71.39
39773;BME280;25451;51.960;6.250;2022-11-09T03:16:04;100391.13;;;14.35;71.12
39773;BME280;25451;51.960;6.250;2022-11-09T03:18:29;100393.63;;;14.36;71.40
39773;BME280;25451;51.960;6.250;2022-11-09T03:21:00;100391.97;;;14.35;71.49
39773;BME280;25451;51.960;6.250;2022-11-09T03:23:25;100387.22;;;14.36;71.16
39773;BME280;25451;51.960;6.250;2022-11-09T03:25:50;100399.75;;;14.33;71.16
39773;BME280;25451;51.960;6.250;2022-11-09T03:28:15;100399.75;;;14.33;71.35
39773;BME280;25451;51.960;6.250;2022-11-09T03:30:41;100388.91;;;14.32;71.13
39773;BME280;25451;51.960;6.250;2022-11-09T03:33:06;100395.59;;;14.31;71.58
39773;BME280;25451;51.960;6.250;2022-11-09T03:35:37;100388.66;;;14.33;71.45
39773;BME280;25451;51.960;6.250;2022-11-09T03:38:02;100385.00;;;14.28;71.35
39773;BME280;25451;51.960;6.250;2022-11-09T03:40:29;100394.19;;;14.28;71.46
39773;BME280;25451;51.960;6.250;2022-11-09T03:42:54;100401.97;;;14.31;71.42
39773;BME280;25451;51.960;6.250;2022-11-09T03:45:20;100400.59;;;14.29;71.47
39773;BME280;25451;51.960;6.250;2022-11-09T03:47:46;100409.47;;;14.31;71.29
39773;BME280;25451;51.960;6.250;2022-11-09T03:50:13;100411.94;;;14.27;71.56
39773;BME280;25451;51.960;6.250;2022-11-09T03:52:39;100418.06;;;14.29;71.35
39773;BME280;25451;51.960;6.250;2022-11-09T03:55:04;100413.88;;;14.27;71.54
39773;BME280;25451;51.960;6.250;2022-11-09T03:57:31;100435.84;;;14.28;71.30
39773;BME280;25451;51.960;6.250;2022-11-09T03:59:56;100429.97;;;14.25;71.48
39773;BME280;25451;51.960;6.250;2022-11-09T04:02:22;100442.47;;;14.27;71.42
39773;BME280;25451;51.960;6.250;2022-11-09T04:04:47;100430.81;;;14.25;71.52
39773;BME280;25451;51.960;6.250;2022-11-09T04:07:13;100426.66;;;14.23;71.53
39773;BME280;25451;51.960;6.250;2022-11-09T04:09:39;100434.97;;;14.23;71.69
39773;BME280;25451;51.960;6.250;2022-11-09T04:12:04;100437.47;;;14.19;71.47
39773;BME280;25451;51.960;6.250;2022-11-09T04:14:30;100436.34;;;14.15;71.52
39773;BME280;25451;51.960;6.250;2022-11-09T04:16:55;100434.44;;;14.21;71.37
39773;BME280;25451;51.960;6.250;2022-11-09T04:19:21;100444.16;;;14.23;71.61
39773;BME280;25451;51.960;6.250;2022-11-09T04:21:47;100438.59;;;14.23;71.24
39773;BME280;25451;51.960;6.250;2022-11-09T04:24:12;100446.91;;;14.23;71.15
39773;BME280;25451;51.960;6.250;2022-11-09T04:26:37;100447.47;;;14.20;71.33
39773;BME280;25451;51.960;6.250;2022-11-09T04:29:03;100457.19;;;14.23;71.13
39773;BME280;25451;51.960;6.250;2022-11-09T04:31:28;100444.66;;;14.15;71.56
39773;BME280;25451;51.960;6.250;2022-11-09T04:33:53;100452.47;;;14.18;71.78
39773;BME280;25451;51.960;6.250;2022-11-09T04:36:19;100470.22;;;14.22;71.68
39773;BME280;25451;51.960;6.250;2022-11-09T04:38:45;100460.22;;;14.16;71.56
39773;BME280;25451;51.960;6.250;2022-11-09T04:41:10;100451.06;;;14.10;71.31
39773;BME280;25451;51.960;6.250;2022-11-09T04:43:35;100469.66;;;14.15;71.39
39773;BME280;25451;51.960;6.250;2022-11-09T04:46:01;100480.22;;;14.18;71.46
39773;BME280;25451;51.960;6.250;2022-11-09T04:48:27;100480.75;;;14.15;71.28
39773;BME280;25451;51.960;6.250;2022-11-09T04:51:05;100472.44;;;14.15;70.96
39773;BME280;25451;51.960;6.250;2022-11-09T04:53:31;100471.88;;;14.13;71.46
39773;BME280;25451;51.960;6.250;2022-11-09T04:55:57;100471.88;;;14.13;71.40
39773;BME280;25451;51.960;6.250;2022-11-09T04:58:22;100468.53;;;14.11;71.38
39773;BME280;25451;51.960;6.250;2022-11-09T05:00:48;100473.28;;;14.10;71.29
39773;BME280;25451;51.960;6.250;2022-11-09T05:03:14;100476.88;;;14.11;71.31
39773;BME280;25451;51.960;6.250;2022-11-09T05:05:39;100468.53;;;14.11;71.57
39773;BME280;25451;51.960;6.250;2022-11-09T05:08:06;100463.28;;;14.09;71.31
39773;BME280;25451;51.960;6.250;2022-11-09T05:10:32;100471.88;;;14.08;71.45
39773;BME280;25451;51.960;6.250;2022-11-09T05:12:58;100463.56;;;14.08;71.61
39773;BME280;25451;51.960;6.250;2022-11-09T05:15:24;100462.16;;;14.05;71.59
39773;BME280;25451;51.960;6.250;2022-11-09T05:17:49;100459.66;;;13.99;71.60
39773;BME280;25451;51.960;6.250;2022-11-09T05:20:14;100468.53;;;14.01;71.56
39773;BME280;25451;51.960;6.250;2022-11-09T05:22:40;100472.97;;;13.97;71.63
39773;BME280;25451;51.960;6.250;2022-11-09T05:25:24;100461.31;;;13.90;71.54
39773;BME280;25451;51.960;6.250;2022-11-09T05:27:50;100467.44;;;13.92;71.63
39773;BME280;25451;51.960;6.250;2022-11-09T05:30:15;100471.59;;;13.94;71.52
39773;BME280;25451;51.960;6.250;2022-11-09T05:32:40;100472.41;;;13.90;71.62
39773;BME280;25451;51.960;6.250;2022-11-09T05:35:06;100478.53;;;13.92;71.34
39773;BME280;25451;51.960;6.250;2022-11-09T05:37:31;100467.97;;;13.84;71.64
39773;BME280;25451;51.960;6.250;2022-11-09T05:39:56;100477.13;;;13.84;71.51
39773;BME280;25451;51.960;6.250;2022-11-09T05:42:25;100471.59;;;13.84;71.75
39773;BME280;25451;51.960;6.250;2022-11-09T05:44:50;100464.06;;;13.85;71.71
39773;BME280;25451;51.960;6.250;2022-11-09T05:47:15;100474.91;;;13.81;71.80
39773;BME280;25451;51.960;6.250;2022-11-09T05:49:41;100469.34;;;13.81;71.49
39773;BME280;25451;51.960;6.250;2022-11-09T05:52:06;100479.59;;;13.81;71.93
39773;BME280;25451;51.960;6.250;2022-11-09T05:54:31;100472.69;;;13.78;71.84
39773;BME280;25451;51.960;6.250;2022-11-09T05:56:56;100475.16;;;13.75;71.79
39773;BME280;25451;51.960;6.250;2022-11-09T05:59:22;100489.03;;;13.75;71.91
39773;BME280;25451;51.960;6.250;2022-11-09T06:01:47;100479.59;;;13.71;71.76
39773;BME280;25451;51.960;6.250;2022-11-09T06:04:12;100487.06;;;13.65;71.67
39773;BME280;25451;51.960;6.250;2022-11-09T06:06:38;100488.72;;;13.66;71.94
39773;BME280;25451;51.960;6.250;2022-11-09T06:09:03;100493.16;;;13.67;72.13
39773;BME280;25451;51.960;6.250;2022-11-09T06:11:28;100493.44;;;13.66;71.80
39773;BME280;25451;51.960;6.250;2022-11-09T06:13:54;100482.03;;;13.62;72.02
39773;BME280;25451;51.960;6.250;2022-11-09T06:16:19;100495.66;;;13.64;71.90
39773;BME280;25451;51.960;6.250;2022-11-09T06:18:45;100486.78;;;13.62;72.02
39773;BME280;25451;51.960;6.250;2022-11-09T06:21:10;100480.94;;;13.58;72.24
39773;BME280;25451;51.960;6.250;2022-11-09T06:23:35;100492.88;;;13.59;72.02
39773;BME280;25451;51.960;6.250;2022-11-09T06:26:03;100497.56;;;13.58;72.23
39773;BME280;25451;51.960;6.250;2022-11-09T06:28:31;100495.91;;;13.57;72.15
39773;BME280;25451;51.960;6.250;2022-11-09T06:31:01;100499.53;;;13.58;71.98
39773;BME280;25451;51.960;6.250;2022-11-09T06:33:29;100502.25;;;13.53;72.08
39773;BME280;25451;51.960;6.250;2022-11-09T06:35:55;100507.81;;;13.53;71.97
39773;BME280;25451;51.960;6.250;2022-11-09T06:38:21;100513.06;;;13.54;72.20
39773;BME280;25451;51.960;6.250;2022-11-09T06:40:50;100511.94;;;13.50;72.34
39773;BME280;25451;51.960;6.250;2022-11-09T06:43:16;100522.53;;;13.53;72.28
39773;BME280;25451;51.960;6.250;2022-11-09T06:45:41;100515.00;;;13.49;72.30
39773;BME280;25451;51.960;6.250;2022-11-09T06:48:08;100510.59;;;13.48;72.07
39773;BME280;25451;51.960;6.250;2022-11-09T06:50:34;100506.69;;;13.44;72.11
39773;BME280;25451;51.960;6.250;2022-11-09T06:53:02;100520.84;;;13.47;72.35
39773;BME280;25451;51.960;6.250;2022-11-09T06:55:29;100516.66;;;13.40;72.04
39773;BME280;25451;51.960;6.250;2022-11-09T06:57:55;100528.31;;;13.47;72.10
39773;BME280;25451;51.960;6.250;2022-11-09T07:00:22;100525.53;;;13.42;72.00
39773;BME280;25451;51.960;6.250;2022-11-09T07:02:47;100516.38;;;13.41;72.21
39773;BME280;25451;51.960;6.250;2022-11-09T07:05:12;100532.19;;;13.46;72.08
39773;BME280;25451;51.960;6.250;2022-11-09T07:07:38;100527.47;;;13.41;72.08
39773;BME280;25451;51.960;6.250;2022-11-09T07:10:03;100522.75;;;13.42;72.11
39773;BME280;25451;51.960;6.250;2022-11-09T07:12:29;100532.72;;;13.43;72.35
39773;BME280;25451;51.960;6.250;2022-11-09T07:14:54;100529.41;;;13.41;72.11
39773;BME280;25451;51.960;6.250;2022-11-09T07:17:19;100534.94;;;13.41;72.23
39773;BME280;25451;51.960;6.250;2022-11-09T07:19:45;100536.28;;;13.33;72.47
39773;BME280;25451;51.960;6.250;2022-11-09T07:22:10;100533.53;;;13.38;72.34
39773;BME280;25451;51.960;6.250;2022-11-09T07:24:36;100532.97;;;13.31;72.38
39773;BME280;25451;51.960;6.250;2022-11-09T07:27:02;100538.22;;;13.32;72.06
39773;BME280;25451;51.960;6.250;2022-11-09T07:29:27;100542.94;;;13.32;72.46
39773;BME280;25451;51.960;6.250;2022-11-09T07:31:52;100539.34;;;13.32;72.35
39773;BME280;25451;51.960;6.250;2022-11-09T07:34:18;100531.56;;;13.28;72.47
39773;BME280;25451;51.960;6.250;2022-11-09T07:36:43;100537.38;;;13.32;72.22
39773;BME280;25451;51.960;6.250;2022-11-09T07:39:08;100550.16;;;13.33;72.29
39773;BME280;25451;51.960;6.250;2022-11-09T07:41:34;100539.59;;;13.30;72.49
39773;BME280;25451;51.960;6.250;2022-11-09T07:43:59;100541.84;;;13.33;72.19
39773;BME280;25451;51.960;6.250;2022-11-09T07:46:24;100545.47;;;13.34;72.39
39773;BME280;25451;51.960;6.250;2022-11-09T07:48:50;100548.78;;;13.36;72.31
39773;BME280;25451;51.960;6.250;2022-11-09T07:51:15;100548.78;;;13.36;72.17
39773;BME280;25451;51.960;6.250;2022-11-09T07:53:40;100550.16;;;13.38;72.57
39773;BME280;25451;51.960;6.250;2022-11-09T07:56:06;100550.72;;;13.40;72.16
39773;BME280;25451;51.960;6.250;2022-11-09T07:58:32;100568.81;;;13.48;72.13
39773;BME280;25451;51.960;6.250;2022-11-09T08:00:58;100558.84;;;13.52;72.14
39773;BME280;25451;51.960;6.250;2022-11-09T08:03:24;100553.81;;;13.49;72.42
39773;BME280;25451;51.960;6.250;2022-11-09T08:05:49;100556.63;;;13.54;72.32
39773;BME280;25451;51.960;6.250;2022-11-09T08:08:15;100559.97;;;13.56;72.15
39773;BME280;25451;51.960;6.250;2022-11-09T08:10:41;100561.38;;;13.63;72.15
39773;BME280;25451;51.960;6.250;2022-11-09T08:13:12;100569.97;;;13.67;72.37
39773;BME280;25451;51.960;6.250;2022-11-09T08:15:41;100558.88;;;13.67;71.98
39773;BME280;25451;51.960;6.250;2022-11-09T08:18:10;100561.69;;;13.72;72.12
39773;BME280;25451;51.960;6.250;2022-11-09T08:20:36;100573.91;;;13.81;71.74
39773;BME280;25451;51.960;6.250;2022-11-09T08:23:02;100571.19;;;13.86;72.04
39773;BME280;25451;51.960;6.250;2022-11-09T08:25:27;100577.28;;;13.88;72.07
39773;BME280;25451;51.960;6.250;2022-11-09T08:27:55;100577.59;;;13.96;71.81
39773;BME280;25451;51.960;6.250;2022-11-09T08:30:20;100586.75;;;14.02;71.95
39773;BME280;25451;51.960;6.250;2022-11-09T08:32:47;100586.75;;;14.07;72.00
39773;BME280;25451;51.960;6.250;2022-11-09T08:35:15;100581.25;;;14.12;71.87
39773;BME280;25451;51.960;6.250;2022-11-09T08:37:45;100595.41;;;14.21;71.61
39773;BME280;25451;51.960;6.250;2022-11-09T08:40:12;100590.69;;;14.26;71.64
39773;BME280;25451;51.960;6.250;2022-11-09T08:42:37;100592.13;;;14.29;71.68
39773;BME280;25451;51.960;6.250;2022-11-09T08:45:03;100592.41;;;14.32;71.64
39773;BME280;25451;51.960;6.250;2022-11-09T08:47:29;100592.16;;;14.39;71.50
39773;BME280;25451;51.960;6.250;2022-11-09T08:49:54;100601.88;;;14.46;71.49
39773;BME280;25451;51.960;6.250;2022-11-09T08:52:20;100596.34;;;14.51;71.51
39773;BME280;25451;51.960;6.250;2022-11-09T08:54:45;100590.78;;;14.51;71.49
39773;BME280;25451;51.960;6.250;2022-11-09T08:57:11;100597.19;;;14.62;71.50
39773;BME280;25451;51.960;6.250;2022-11-09T08:59:36;100590.78;;;14.66;71.38
39773;BME280;25451;51.960;6.250;2022-11-09T09:02:02;100590.25;;;14.69;71.56
39773;BME280;25451;51.960;6.250;2022-11-09T09:04:27;100599.13;;;14.76;71.43
39773;BME280;25451;51.960;6.250;2022-11-09T09:06:53;100593.03;;;14.79;71.26
39773;BME280;25451;51.960;6.250;2022-11-09T09:09:19;100595.22;;;14.87;71.24
39773;BME280;25451;51.960;6.250;2022-11-09T09:11:44;100605.50;;;14.97;71.18
39773;BME280;25451;51.960;6.250;2022-11-09T09:14:10;100599.41;;;15.00;71.07
39773;BME280;25451;51.960;6.250;2022-11-09T09:16:35;100604.94;;;15.05;71.12
39773;BME280;25451;51.960;6.250;2022-11-09T09:19:00;100611.59;;;15.09;71.08
39773;BME280;25451;51.960;6.250;2022-11-09T09:21:26;100610.22;;;15.17;70.92
39773;BME280;25451;51.960;6.250;2022-11-09T09:23:51;100594.66;;;15.16;70.72
39773;BME280;25451;51.960;6.250;2022-11-09T09:26:17;100606.59;;;15.21;71.02
39773;BME280;25451;51.960;6.250;2022-11-09T09:28:42;100608.53;;;15.31;70.85
39773;BME280;25451;51.960;6.250;2022-11-09T09:31:08;100608.81;;;15.34;70.76
39773;BME280;25451;51.960;6.250;2022-11-09T09:33:33;100610.16;;;15.42;70.78
39773;BME280;25451;51.960;6.250;2022-11-09T09:35:59;100607.97;;;15.39;70.66
39773;BME280;25451;51.960;6.250;2022-11-09T09:38:25;100616.88;;;15.51;70.64
39773;BME280;25451;51.960;6.250;2022-11-09T09:40:59;100618.81;;;15.55;70.68
39773;BME280;25451;51.960;6.250;2022-11-09T09:43:32;100617.69;;;15.61;70.36
39773;BME280;25451;51.960;6.250;2022-11-09T09:45:59;100617.66;;;15.66;70.59
39773;BME280;25451;51.960;6.250;2022-11-09T09:48:37;100619.31;;;15.67;70.63
39773;BME280;25451;51.960;6.250;2022-11-09T09:51:23;100634.03;;;15.73;70.50
39773;BME280;25451;51.960;6.250;2022-11-09T09:54:16;100635.16;;;15.77;70.43
39773;BME280;25451;51.960;6.250;2022-11-09T09:56:43;100640.13;;;15.80;70.39
39773;BME280;25451;51.960;6.250;2022-11-09T09:59:39;100643.19;;;15.84;70.23
39773;BME280;25451;51.960;6.250;2022-11-09T10:04:43;100647.91;;;15.83;70.30
39773;BME280;25451;51.960;6.250;2022-11-09T10:07:31;100646.78;;;15.84;70.14
39773;BME280;25451;51.960;6.250;2022-11-09T10:12:47;100642.06;;;15.90;70.03
39773;BME280;25451;51.960;6.250;2022-11-09T10:15:24;100645.94;;;15.94;70.09
39773;BME280;25451;51.960;6.250;2022-11-09T10:18:39;100654.56;;;15.97;69.92
39773;BME280;25451;51.960;6.250;2022-11-09T10:31:46;100652.81;;;16.11;69.80
39773;BME280;25451;51.960;6.250;2022-11-09T10:34:17;100645.56;;;16.15;69.62
39773;BME280;25451;51.960;6.250;2022-11-09T10:39:48;100639.97;;;16.20;69.50
39773;BME280;25451;51.960;6.250;2022-11-09T10:42:14;100639.97;;;16.20;69.43
39773;BME280;25451;51.960;6.250;2022-11-09T10:44:40;100633.25;;;16.26;69.26
39773;BME280;25451;51.960;6.250;2022-11-09T10:47:11;100644.34;;;16.31;69.09
39773;BME280;25451;51.960;6.250;2022-11-09T10:49:38;100643.78;;;16.34;69.15
39773;BME280;25451;51.960;6.250;2022-11-09T10:52:05;100644.09;;;16.33;68.86
39773;BME280;25451;51.960;6.250;2022-11-09T10:54:48;100642.97;;;16.34;68.90
39773;BME280;25451;51.960;6.250;2022-11-09T10:57:19;100646.53;;;16.39;68.87
39773;BME280;25451;51.960;6.250;2022-11-09T10:59:50;100640.16;;;16.39;68.80
39773;BME280;25451;51.960;6.250;2022-11-09T11:07:42;100649.56;;;16.48;68.34
39773;BME280;25451;51.960;6.250;2022-11-09T11:12:43;100656.53;;;16.50;68.25
39773;BME280;25451;51.960;6.250;2022-11-09T11:15:23;100661.25;;;16.55;68.10
39773;BME280;25451;51.960;6.250;2022-11-09T11:17:49;100657.09;;;16.52;68.13
39773;BME280;25451;51.960;6.250;2022-11-09T11:20:26;100672.06;;;16.62;68.00
39773;BME280;25451;51.960;6.250;2022-11-09T11:23:25;100659.03;;;16.57;67.90
39773;BME280;25451;51.960;6.250;2022-11-09T11:28:40;100662.00;;;16.66;67.63
39773;BME280;25451;51.960;6.250;2022-11-09T11:31:13;100661.47;;;16.64;67.43
39773;BME280;25451;51.960;6.250;2022-11-09T11:33:39;100665.94;;;16.65;67.28
39773;BME280;25451;51.960;6.250;2022-11-09T11:41:54;100678.19;;;16.64;67.00
39773;BME280;25451;51.960;6.250;2022-11-09T11:53:07;100632.59;;;16.39;67.17
39773;BME280;25451;51.960;6.250;2022-11-09T12:01:56;100665.44;;;16.47;66.84
39773;BME280;25451;51.960;6.250;2022-11-09T12:07:28;100632.72;;;16.24;66.76
39773;BME280;25451;51.960;6.250;2022-11-09T12:13:05;100675.78;;;16.42;66.58
39773;BME280;25451;51.960;6.250;2022-11-09T12:15:46;100671.59;;;16.39;66.73
39773;BME280;25451;51.960;6.250;2022-11-09T12:18:26;100671.34;;;16.41;66.58
39773;BME280;25451;51.960;6.250;2022-11-09T12:21:20;100620.81;;;16.09;66.51
39773;BME280;25451;51.960;6.250;2022-11-09T12:37:13;100579.44;;;15.87;66.17
39773;BME280;25451;51.960;6.250;2022-11-09T12:40:10;100627.22;;;16.09;65.97
39773;BME280;25451;51.960;6.250;2022-11-09T12:42:46;100647.75;;;16.23;65.99
39773;BME280;25451;51.960;6.250;2022-11-09T12:47:52;100576.06;;;15.95;65.96
39773;BME280;25451;51.960;6.250;2022-11-09T12:50:23;100592.75;;;16.00;65.71
39773;BME280;25451;51.960;6.250;2022-11-09T12:53:03;100627.16;;;16.24;65.82
39773;BME280;25451;51.960;6.250;2022-11-09T12:58:29;100576.09;;;15.90;65.83
39773;BME280;25451;51.960;6.250;2022-11-09T13:01:00;100611.88;;;16.12;65.66
39773;BME280;25451;51.960;6.250;2022-11-09T13:03:56;100581.97;;;15.84;65.71
39773;BME280;25451;51.960;6.250;2022-11-09T13:06:48;100578.34;;;15.78;65.65
39773;BME280;25451;51.960;6.250;2022-11-09T13:11:44;100593.44;;;15.67;65.63
39773;BME280;25451;51.960;6.250;2022-11-09T13:14:29;100684.53;;;16.15;65.65
39773;BME280;25451;51.960;6.250;2022-11-09T13:19:52;100642.09;;;15.80;65.67
39773;BME280;25451;51.960;6.250;2022-11-09T13:24:57;100583.47;;;15.51;65.43
39773;BME280;25451;51.960;6.250;2022-11-09T13:29:59;100646.56;;;15.70;65.60
39773;BME280;25451;51.960;6.250;2022-11-09T13:32:27;100626.31;;;15.55;65.37
39773;BME280;25451;51.960;6.250;2022-11-09T13:35:01;100608.25;;;15.47;65.25
39773;BME280;25451;51.960;6.250;2022-11-09T13:48:01;100705.81;;;15.81;65.10
39773;BME280;25451;51.960;6.250;2022-11-09T13:50:29;100705.56;;;15.77;65.13
39773;BME280;25451;51.960;6.250;2022-11-09T13:52:56;100716.94;;;15.81;65.11
39773;BME280;25451;51.960;6.250;2022-11-09T13:55:25;100689.72;;;15.58;65.09
39773;BME280;25451;51.960;6.250;2022-11-09T13:57:52;100720.03;;;15.74;65.12
39773;BME280;25451;51.960;6.250;2022-11-09T14:00:22;100732.53;;;15.77;65.05
39773;BME280;25451;51.960;6.250;2022-11-09T14:03:01;100722.53;;;15.66;65.18
39773;BME280;25451;51.960;6.250;2022-11-09T14:05:36;100740.06;;;15.71;64.91
39773;BME280;25451;51.960;6.250;2022-11-09T14:08:08;100729.78;;;15.67;64.85
39773;BME280;25451;51.960;6.250;2022-11-09T14:13:45;100740.34;;;15.70;64.87
39773;BME280;25451;51.960;6.250;2022-11-09T14:21:51;100722.00;;;15.49;64.91
39773;BME280;25451;51.960;6.250;2022-11-09T14:24:22;100752.59;;;15.59;64.86
39773;BME280;25451;51.960;6.250;2022-11-09T14:27:13;100720.91;;;15.45;64.74
39773;BME280;25451;51.960;6.250;2022-11-09T14:29:58;100757.88;;;15.60;64.87
39773;BME280;25451;51.960;6.250;2022-11-09T14:32:31;100750.13;;;15.57;64.70
39773;BME280;25451;51.960;6.250;2022-11-09T14:37:47;100742.34;;;15.49;64.74
39773;BME280;25451;51.960;6.250;2022-11-09T14:45:48;100726.44;;;15.30;64.67
39773;BME280;25451;51.960;6.250;2022-11-09T14:48:19;100774.28;;;15.52;64.65
39773;BME280;25451;51.960;6.250;2022-11-09T14:50:46;100769.31;;;15.49;64.50
39773;BME280;25451;51.960;6.250;2022-11-09T14:53:39;100679.69;;;14.86;64.54
39773;BME280;25451;51.960;6.250;2022-11-09T14:56:08;100710.59;;;15.00;64.64